createdAt,value
2019-05-14T00:00:53.237Z,14.32
2019-05-14T00:03:23.198Z,14.36
2019-05-14T00:05:53.066Z,14.36
2019-05-14T00:08:23.140Z,14.34
2019-05-14T00:10:53.121Z,14.31
2019-05-14T00:13:23.032Z,14.32
2019-05-14T00:15:52.901Z,14.33
2019-05-14T00:18:22.817Z,14.41
2019-05-14T00:20:52.744Z,14.35
2019-05-14T00:23:22.684Z,14.42
2019-05-14T00:25:52.571Z,14.38
2019-05-14T00:28:22.477Z,14.44
2019-05-14T00:30:52.671Z,14.41
2019-05-14T00:33:22.744Z,14.58
2019-05-14T00:35:52.745Z,14.55
2019-05-14T00:38:22.650Z,14.62
2019-05-14T00:40:52.458Z,14.69
2019-05-14T00:43:22.436Z,14.62
2019-05-14T00:45:52.315Z,14.49
2019-05-14T00:48:22.288Z,14.35
2019-05-14T00:50:52.239Z,14.24
2019-05-14T00:53:22.073Z,14.15
2019-05-14T00:55:52.921Z,14.19
2019-05-14T00:58:22.719Z,14.32
2019-05-14T01:00:52.778Z,14.33
2019-05-14T01:03:22.451Z,14.30
2019-05-14T01:05:52.524Z,14.32
2019-05-14T01:08:22.275Z,14.07
2019-05-14T01:10:52.254Z,14.21
2019-05-14T01:13:22.104Z,14.26
2019-05-14T01:15:52.353Z,14.35
2019-05-14T01:18:22.175Z,14.42
2019-05-14T01:20:52.182Z,14.39
2019-05-14T01:23:22.103Z,14.51
2019-05-14T01:25:51.927Z,14.61
2019-05-14T01:28:21.821Z,14.68
2019-05-14T01:30:52.033Z,14.72
2019-05-14T01:33:21.817Z,14.82
2019-05-14T01:35:51.678Z,14.87
2019-05-14T01:38:22.167Z,14.86
2019-05-14T01:40:52.624Z,14.87
2019-05-14T01:43:22.350Z,14.83
2019-05-14T01:45:52.597Z,14.83
2019-05-14T01:48:22.384Z,14.87
2019-05-14T01:50:52.327Z,14.90
2019-05-14T01:53:22.201Z,14.89
2019-05-14T01:55:52.260Z,14.87
2019-05-14T01:58:22.296Z,14.86
2019-05-14T02:00:52.482Z,14.83
2019-05-14T02:03:22.380Z,14.86
2019-05-14T02:05:52.319Z,14.84
2019-05-14T02:08:22.187Z,14.88
2019-05-14T02:10:52.633Z,14.89
2019-05-14T02:13:22.720Z,14.89
2019-05-14T02:15:52.637Z,14.93
2019-05-14T02:18:22.515Z,14.86
2019-05-14T02:20:52.440Z,14.87
2019-05-14T02:23:23.615Z,14.88
2019-05-14T02:25:53.397Z,14.88
2019-05-14T02:28:23.329Z,14.88
2019-05-14T02:30:58.073Z,14.89
2019-05-14T02:33:24.796Z,14.89
2019-05-14T02:35:54.533Z,14.95
2019-05-14T02:38:24.538Z,14.96
2019-05-14T02:40:54.549Z,14.90
2019-05-14T02:43:24.366Z,14.94
2019-05-14T02:46:09.054Z,14.97
2019-05-14T02:48:28.979Z,15.00
2019-05-14T02:50:59.821Z,15.03
2019-05-14T02:53:29.892Z,15.10
2019-05-14T02:56:00.125Z,15.11
2019-05-14T02:58:30.290Z,14.96
2019-05-14T03:01:00.811Z,14.72
2019-05-14T03:03:30.844Z,14.58
2019-05-14T03:06:01.051Z,14.52
2019-05-14T03:08:31.190Z,14.48
2019-05-14T03:11:01.373Z,14.31
2019-05-14T03:13:31.308Z,14.14
2019-05-14T03:16:19.026Z,14.24
2019-05-14T03:18:32.933Z,14.19
2019-05-14T03:21:02.864Z,14.27
2019-05-14T03:23:32.717Z,14.43
2019-05-14T03:26:02.469Z,14.55
2019-05-14T03:28:32.421Z,14.74
2019-05-14T03:31:03.734Z,14.45
2019-05-14T03:33:34.581Z,14.48
2019-05-14T03:36:08.899Z,14.43
2019-05-14T03:38:39.458Z,14.44
2019-05-14T03:41:09.348Z,14.39
2019-05-14T03:43:39.635Z,14.33
2019-05-14T03:46:09.859Z,14.41
2019-05-14T03:48:40.225Z,14.45
2019-05-14T03:51:11.394Z,14.46
2019-05-14T03:53:55.030Z,14.60
2019-05-14T03:56:12.736Z,14.61
2019-05-14T03:58:42.604Z,14.70
2019-05-14T04:01:13.547Z,14.75
2019-05-14T04:03:43.820Z,14.84
2019-05-14T04:06:15.385Z,14.87
2019-05-14T04:08:45.835Z,14.88
2019-05-14T04:11:20.209Z,14.89
2019-05-14T04:13:52.423Z,14.93
2019-05-14T04:16:24.082Z,14.97
2019-05-14T04:18:54.992Z,15.06
2019-05-14T04:21:29.798Z,14.99
2019-05-14T04:24:00.914Z,15.00
2019-05-14T04:26:50.875Z,15.03
2019-05-14T04:29:05.721Z,15.00
2019-05-14T04:31:39.078Z,15.02
2019-05-14T04:34:10.747Z,15.11
2019-05-14T04:36:40.122Z,15.15
2019-05-14T04:39:09.852Z,15.07
2019-05-14T04:41:39.726Z,15.17
2019-05-14T04:44:10.065Z,15.34
2019-05-14T04:46:42.223Z,15.48
2019-05-14T04:49:12.136Z,15.42
2019-05-14T04:51:42.222Z,15.47
2019-05-14T04:54:12.181Z,15.61
2019-05-14T04:56:41.875Z,15.66
2019-05-14T04:59:11.900Z,15.56
2019-05-14T05:01:41.951Z,15.63
2019-05-14T05:04:11.747Z,15.71
2019-05-14T05:06:41.494Z,15.82
2019-05-14T05:09:11.340Z,15.86
2019-05-14T05:11:41.195Z,15.96
2019-05-14T05:14:12.340Z,16.06
2019-05-14T05:16:42.139Z,16.18
2019-05-14T05:19:12.029Z,16.10
2019-05-14T05:21:42.140Z,16.26
2019-05-14T05:24:12.219Z,16.45
2019-05-14T05:26:41.913Z,16.52
2019-05-14T05:29:11.777Z,16.49
2019-05-14T05:31:41.430Z,16.79
2019-05-14T05:34:11.338Z,16.90
2019-05-14T05:36:41.322Z,16.90
2019-05-14T05:39:11.181Z,16.61
2019-05-14T05:41:41.149Z,16.67
2019-05-14T05:44:11.007Z,16.80
2019-05-14T05:46:43.214Z,16.89
2019-05-14T05:49:12.323Z,16.93
2019-05-14T05:51:42.210Z,16.87
2019-05-14T05:54:12.237Z,16.88
2019-05-14T05:56:42.168Z,16.79
2019-05-14T05:59:11.962Z,16.67
2019-05-14T06:01:46.333Z,16.76
2019-05-14T06:04:13.780Z,16.78
2019-05-14T06:06:43.549Z,16.86
2019-05-14T06:09:13.563Z,16.78
2019-05-14T06:11:43.455Z,16.58
2019-05-14T06:14:13.288Z,16.35
2019-05-14T06:16:43.095Z,16.46
2019-05-14T06:19:12.976Z,16.66
2019-05-14T06:21:42.856Z,16.93
2019-05-14T06:24:12.773Z,16.95
2019-05-14T06:26:42.723Z,17.05
2019-05-14T06:29:12.579Z,17.03
2019-05-14T06:31:42.528Z,17.29
2019-05-14T06:34:12.483Z,17.03
2019-05-14T06:36:42.324Z,16.96
2019-05-14T06:39:12.249Z,16.92
2019-05-14T06:41:43.096Z,16.78
2019-05-14T06:44:13.082Z,16.63
2019-05-14T06:46:42.813Z,16.62
2019-05-14T06:49:12.669Z,16.73
2019-05-14T06:51:43.586Z,16.58
2019-05-14T06:54:13.384Z,16.48
2019-05-14T06:56:43.152Z,16.57
2019-05-14T06:59:12.917Z,16.58
2019-05-14T07:01:42.724Z,16.79
2019-05-14T07:04:12.756Z,16.81
2019-05-14T07:06:42.547Z,17.08
2019-05-14T07:09:12.476Z,17.22
2019-05-14T07:11:42.416Z,17.61
2019-05-14T07:14:12.310Z,17.59
2019-05-14T07:16:42.162Z,17.64
2019-05-14T07:19:12.062Z,17.63
2019-05-14T07:21:41.874Z,17.56
2019-05-14T07:24:11.834Z,17.42
2019-05-14T07:26:41.706Z,17.48
2019-05-14T07:29:11.785Z,17.29
2019-05-14T07:31:41.849Z,17.50
2019-05-14T07:34:11.659Z,17.56
2019-05-14T07:36:41.647Z,17.61
2019-05-14T07:39:11.488Z,17.54
2019-05-14T07:41:41.457Z,17.53
2019-05-14T07:44:11.323Z,17.68
2019-05-14T07:46:41.245Z,17.81
2019-05-14T07:49:11.924Z,17.81
2019-05-14T07:51:41.875Z,17.98
2019-05-14T07:54:11.852Z,17.82
2019-05-14T07:56:41.614Z,18.17
2019-05-14T07:59:11.480Z,18.02
2019-05-14T08:01:41.360Z,18.04
2019-05-14T08:04:11.790Z,17.92
2019-05-14T08:06:41.844Z,18.13
2019-05-14T08:09:11.617Z,18.21
2019-05-14T08:11:42.689Z,17.98
2019-05-14T08:14:12.556Z,18.13
2019-05-14T08:16:42.470Z,18.25
2019-05-14T08:19:24.447Z,18.28
2019-05-14T08:21:43.808Z,18.28
2019-05-14T08:24:15.376Z,18.00
2019-05-14T08:26:45.348Z,18.21
2019-05-14T08:29:15.094Z,17.87
2019-05-14T08:31:44.867Z,17.71
2019-05-14T08:34:14.900Z,17.44
2019-05-14T08:36:44.762Z,17.01
2019-05-14T08:39:14.596Z,16.98
2019-05-14T08:41:44.430Z,16.91
2019-05-14T08:44:14.174Z,16.85
2019-05-14T08:46:45.229Z,16.74
2019-05-14T08:49:15.206Z,16.72
2019-05-14T08:51:44.965Z,16.73
2019-05-14T08:54:14.724Z,16.68
2019-05-14T08:56:44.722Z,16.75
2019-05-14T08:59:14.557Z,16.49
2019-05-14T09:02:00.910Z,16.59
2019-05-14T09:04:16.278Z,16.81
2019-05-14T09:06:45.968Z,16.94
2019-05-14T09:09:18.127Z,16.97
2019-05-14T09:11:50.367Z,16.87
2019-05-14T09:14:18.974Z,16.99
2019-05-14T09:16:51.049Z,17.05
2019-05-14T09:19:20.680Z,17.08
2019-05-14T09:21:50.592Z,17.37
2019-05-14T09:24:20.639Z,17.20
2019-05-14T09:26:50.436Z,17.06
2019-05-14T09:29:25.789Z,16.91
2019-05-14T09:31:51.935Z,16.82
2019-05-14T09:34:21.902Z,17.06
2019-05-14T09:36:51.703Z,17.12
2019-05-14T09:39:21.676Z,16.85
2019-05-14T09:41:51.531Z,16.48
2019-05-14T09:44:21.603Z,16.54
2019-05-14T09:46:51.385Z,16.44
2019-05-14T09:49:21.191Z,16.15
2019-05-14T09:51:51.050Z,16.26
2019-05-14T09:54:20.839Z,16.54
2019-05-14T09:56:50.650Z,16.71
2019-05-14T09:59:21.785Z,16.97
2019-05-14T10:01:51.512Z,17.22
2019-05-14T10:04:21.538Z,17.04
2019-05-14T10:06:51.411Z,16.95
2019-05-14T10:09:21.256Z,16.93
2019-05-14T10:11:51.157Z,16.99
2019-05-14T10:14:21.130Z,16.70
2019-05-14T10:16:50.893Z,16.57
2019-05-14T10:19:20.723Z,16.44
2019-05-14T10:21:50.803Z,16.34
2019-05-14T10:24:20.562Z,16.37
2019-05-14T10:26:50.488Z,16.45
2019-05-14T10:29:20.562Z,16.58
2019-05-14T10:31:50.441Z,16.60
2019-05-14T10:34:20.235Z,16.55
2019-05-14T10:36:50.146Z,16.36
2019-05-14T10:39:20.214Z,16.53
2019-05-14T10:41:50.805Z,16.57
2019-05-14T10:44:20.618Z,16.48
2019-05-14T10:46:50.521Z,16.28
2019-05-14T10:49:23.629Z,16.47
2019-05-14T10:51:51.780Z,16.59
2019-05-14T10:54:25.698Z,16.75
2019-05-14T10:56:54.539Z,16.65
2019-05-14T10:59:24.419Z,16.71
2019-05-14T11:01:54.198Z,16.73
2019-05-14T11:04:25.199Z,16.81
2019-05-14T11:06:55.077Z,16.68
2019-05-14T11:09:25.112Z,16.61
2019-05-14T11:11:54.895Z,16.73
2019-05-14T11:14:24.649Z,16.64
2019-05-14T11:16:54.545Z,16.43
2019-05-14T11:19:24.763Z,16.35
2019-05-14T11:21:54.533Z,16.32
2019-05-14T11:24:24.443Z,16.58
2019-05-14T11:26:54.225Z,16.56
2019-05-14T11:29:24.130Z,16.72
2019-05-14T11:31:56.838Z,17.00
2019-05-14T11:34:28.748Z,17.07
2019-05-14T11:36:59.026Z,16.68
2019-05-14T11:39:30.268Z,16.70
2019-05-14T11:42:00.049Z,16.61
2019-05-14T11:44:29.968Z,16.65
2019-05-14T11:47:02.662Z,16.80
2019-05-14T11:49:31.450Z,16.65
2019-05-14T11:52:07.696Z,16.58
2019-05-14T11:54:33.941Z,16.50
2019-05-14T11:57:03.856Z,16.42
2019-05-14T11:59:33.811Z,16.49
2019-05-14T12:02:03.758Z,16.45
2019-05-14T12:04:34.740Z,16.62
2019-05-14T12:07:04.561Z,16.60
2019-05-14T12:09:34.482Z,17.13
2019-05-14T12:12:05.881Z,17.25
2019-05-14T12:14:37.913Z,17.33
2019-05-14T12:17:09.497Z,17.35
2019-05-14T12:19:43.371Z,17.46
2019-05-14T12:22:12.434Z,17.18
2019-05-14T12:24:42.347Z,17.12
2019-05-14T12:27:12.397Z,16.73
2019-05-14T12:29:42.096Z,16.51
2019-05-14T12:32:13.288Z,16.65
2019-05-14T12:34:43.048Z,16.43
2019-05-14T12:37:12.870Z,16.45
2019-05-14T12:39:42.711Z,16.62
2019-05-14T12:42:12.823Z,16.60
2019-05-14T12:44:42.889Z,16.50
2019-05-14T12:47:12.676Z,16.30
2019-05-14T12:49:43.922Z,16.32
2019-05-14T12:52:24.573Z,16.28
2019-05-14T12:54:45.580Z,16.39
2019-05-14T12:57:15.437Z,16.45
2019-05-14T12:59:45.302Z,16.59
2019-05-14T13:02:15.212Z,16.71
2019-05-14T13:04:45.082Z,16.85
2019-05-14T13:07:14.938Z,17.10
2019-05-14T13:09:46.006Z,17.30
2019-05-14T13:12:15.896Z,18.12
2019-05-14T13:14:45.714Z,18.23
2019-05-14T13:17:15.546Z,18.23
2019-05-14T13:19:45.614Z,18.01
2019-05-14T13:22:19.008Z,17.69
2019-05-14T13:24:49.173Z,17.50
2019-05-14T13:27:19.069Z,17.29
2019-05-14T13:29:49.073Z,17.29
2019-05-14T13:32:22.466Z,17.19
2019-05-14T13:34:52.320Z,17.42
2019-05-14T13:37:22.189Z,17.36
2019-05-14T13:39:53.158Z,17.41
2019-05-14T13:42:23.115Z,17.46
2019-05-14T13:44:53.059Z,17.65
2019-05-14T13:47:22.919Z,17.47
2019-05-14T13:49:52.835Z,17.51
2019-05-14T13:52:22.703Z,17.42
2019-05-14T13:54:52.377Z,17.48
2019-05-14T13:57:22.243Z,17.69
2019-05-14T13:59:52.097Z,17.66
2019-05-14T14:02:22.050Z,17.48
2019-05-14T14:04:52.094Z,17.36
2019-05-14T14:07:21.852Z,17.11
2019-05-14T14:09:53.023Z,17.09
2019-05-14T14:12:25.186Z,16.89
2019-05-14T14:14:54.331Z,16.64
2019-05-14T14:17:24.103Z,16.60
2019-05-14T14:19:53.820Z,16.59
2019-05-14T14:22:23.776Z,16.66
2019-05-14T14:24:53.428Z,16.65
2019-05-14T14:27:24.614Z,16.57
2019-05-14T14:29:54.359Z,16.66
2019-05-14T14:32:24.138Z,16.55
2019-05-14T14:34:55.149Z,16.48
2019-05-14T14:37:28.490Z,16.44
2019-05-14T14:39:59.301Z,16.44
2019-05-14T14:42:30.407Z,16.27
2019-05-14T14:45:01.726Z,16.42
2019-05-14T14:47:32.517Z,16.38
2019-05-14T14:50:02.337Z,16.39
2019-05-14T14:52:33.398Z,16.30
2019-05-14T14:55:03.204Z,16.30
2019-05-14T14:57:33.024Z,16.39
2019-05-14T15:00:02.911Z,16.41
2019-05-14T15:02:32.654Z,16.29
2019-05-14T15:05:02.545Z,16.24
2019-05-14T15:07:32.534Z,16.14
2019-05-14T15:10:02.178Z,15.97
2019-05-14T15:12:35.659Z,15.97
2019-05-14T15:15:03.709Z,15.89
2019-05-14T15:17:33.465Z,15.93
2019-05-14T15:20:03.434Z,15.89
2019-05-14T15:22:34.542Z,15.96
2019-05-14T15:25:04.541Z,15.95
2019-05-14T15:27:34.374Z,15.93
2019-05-14T15:30:05.024Z,15.95
2019-05-14T15:32:34.923Z,16.01
2019-05-14T15:35:05.095Z,15.99
2019-05-14T15:37:34.921Z,16.07
2019-05-14T15:40:04.988Z,16.14
2019-05-14T15:42:34.822Z,16.17
2019-05-14T15:45:04.592Z,16.16
2019-05-14T15:47:34.511Z,16.05
2019-05-14T15:50:05.901Z,15.96
2019-05-14T15:52:35.600Z,15.82
2019-05-14T15:55:05.711Z,15.84
2019-05-14T15:57:39.588Z,15.81
2019-05-14T16:00:09.320Z,15.88
2019-05-14T16:02:39.982Z,15.91
2019-05-14T16:05:11.308Z,15.83
2019-05-14T16:07:41.262Z,15.85
2019-05-14T16:10:11.354Z,15.80
2019-05-14T16:12:41.165Z,15.79
2019-05-14T16:15:12.249Z,15.79
2019-05-14T16:17:50.599Z,15.77
2019-05-14T16:20:14.231Z,15.68
2019-05-14T16:22:43.921Z,15.64
2019-05-14T16:25:15.377Z,15.61
2019-05-14T16:27:45.388Z,15.57
2019-05-14T16:30:19.171Z,15.51
2019-05-14T16:32:48.671Z,15.58
2019-05-14T16:35:21.218Z,15.48
2019-05-14T16:37:50.209Z,15.44
2019-05-14T16:40:20.121Z,15.41
2019-05-14T16:42:49.873Z,15.36
2019-05-14T16:45:19.725Z,15.40
2019-05-14T16:47:49.570Z,15.34
2019-05-14T16:50:19.772Z,15.37
2019-05-14T16:52:49.618Z,15.35
2019-05-14T16:55:26.429Z,15.34
2019-05-14T16:57:51.332Z,15.39
2019-05-14T17:00:21.574Z,15.30
2019-05-14T17:02:51.431Z,15.32
2019-05-14T17:05:21.139Z,15.30
2019-05-14T17:07:51.024Z,15.24
2019-05-14T17:10:20.857Z,15.30
2019-05-14T17:12:56.895Z,15.27
2019-05-14T17:15:22.242Z,15.17
2019-05-14T17:17:52.096Z,15.23
2019-05-14T17:20:24.425Z,15.27
2019-05-14T17:22:53.811Z,15.30
2019-05-14T17:25:26.986Z,15.46
2019-05-14T17:27:54.959Z,15.46
2019-05-14T17:30:24.830Z,15.40
2019-05-14T17:32:54.552Z,15.42
2019-05-14T17:35:24.434Z,15.43
2019-05-14T17:37:54.260Z,15.45
2019-05-14T17:40:24.178Z,15.48
2019-05-14T17:42:54.159Z,15.51
2019-05-14T17:45:24.059Z,15.54
2019-05-14T17:47:54.036Z,15.59
2019-05-14T17:50:23.744Z,15.56
2019-05-14T17:52:56.308Z,15.45
2019-05-14T17:55:25.338Z,15.55
2019-05-14T17:57:58.575Z,15.46
2019-05-14T18:00:28.766Z,15.49
2019-05-14T18:02:59.144Z,15.52
2019-05-14T18:05:29.235Z,15.53
2019-05-14T18:07:59.580Z,15.51
2019-05-14T18:10:29.641Z,15.50
2019-05-14T18:12:59.988Z,15.52
2019-05-14T18:15:29.777Z,15.55
2019-05-14T18:17:59.597Z,15.60
2019-05-14T18:20:29.622Z,15.62
2019-05-14T18:22:59.423Z,15.58
2019-05-14T18:25:29.284Z,15.59
2019-05-14T18:27:59.102Z,15.53
2019-05-14T18:30:29.159Z,15.53
2019-05-14T18:32:58.901Z,15.53
2019-05-14T18:35:29.634Z,15.54
2019-05-14T18:37:59.492Z,15.49
2019-05-14T18:40:30.532Z,15.52
2019-05-14T18:43:01.571Z,15.54
2019-05-14T18:45:31.381Z,15.53
2019-05-14T18:48:01.199Z,15.59
2019-05-14T18:50:32.290Z,15.54
2019-05-14T18:53:02.152Z,15.62
2019-05-14T18:55:31.885Z,15.66
2019-05-14T18:58:01.732Z,15.64
2019-05-14T19:00:31.922Z,15.61
2019-05-14T19:03:02.377Z,15.62
2019-05-14T19:05:32.301Z,15.61
2019-05-14T19:08:02.063Z,15.63
2019-05-14T19:10:31.768Z,15.61
2019-05-14T19:13:04.056Z,15.62
2019-05-14T19:15:33.967Z,15.57
2019-05-14T19:18:04.005Z,15.54
2019-05-14T19:20:35.155Z,15.60
2019-05-14T19:23:05.040Z,15.59
2019-05-14T19:25:34.877Z,15.56
2019-05-14T19:28:04.846Z,15.48
2019-05-14T19:30:38.068Z,15.51
2019-05-14T19:33:08.527Z,15.45
2019-05-14T19:35:39.676Z,15.44
2019-05-14T19:38:09.423Z,15.48
2019-05-14T19:40:39.404Z,15.45
2019-05-14T19:43:09.509Z,15.44
2019-05-14T19:45:39.628Z,15.35
2019-05-14T19:48:09.509Z,15.35
2019-05-14T19:50:39.152Z,15.33
2019-05-14T19:53:09.158Z,15.31
2019-05-14T19:55:39.342Z,15.35
2019-05-14T19:58:09.332Z,15.34
2019-05-14T20:00:39.217Z,15.33
2019-05-14T20:03:10.391Z,15.33
2019-05-14T20:05:40.183Z,15.29
2019-05-14T20:08:10.020Z,15.27
2019-05-14T20:10:39.985Z,15.26
2019-05-14T20:13:09.845Z,15.26
2019-05-14T20:15:39.879Z,15.25
2019-05-14T20:18:11.215Z,15.28
2019-05-14T20:20:40.835Z,15.28
2019-05-14T20:23:10.738Z,15.27
2019-05-14T20:25:40.719Z,15.37
2019-05-14T20:28:10.477Z,15.41
2019-05-14T20:30:40.307Z,15.43
2019-05-14T20:33:10.244Z,15.44
2019-05-14T20:35:39.954Z,15.42
2019-05-14T20:38:10.964Z,15.32
2019-05-14T20:40:40.909Z,15.27
2019-05-14T20:43:10.616Z,15.29
2019-05-14T20:45:40.511Z,15.37
2019-05-14T20:48:10.477Z,15.31
2019-05-14T20:50:40.263Z,15.32
2019-05-14T20:53:10.177Z,15.37
2019-05-14T20:55:40.055Z,15.34
2019-05-14T20:58:10.058Z,15.35
2019-05-14T21:00:41.401Z,15.34
2019-05-14T21:03:12.767Z,15.37
2019-05-14T21:05:42.667Z,15.34
2019-05-14T21:08:13.490Z,15.35
2019-05-14T21:10:43.547Z,15.39
2019-05-14T21:13:13.411Z,15.33
2019-05-14T21:15:43.327Z,15.33
2019-05-14T21:18:13.222Z,15.33
2019-05-14T21:20:43.065Z,15.34
2019-05-14T21:23:13.004Z,15.27
2019-05-14T21:25:42.892Z,15.32
2019-05-14T21:28:12.830Z,15.36
2019-05-14T21:30:43.971Z,15.30
2019-05-14T21:33:16.052Z,15.37
2019-05-14T21:35:45.845Z,15.37
2019-05-14T21:38:15.845Z,15.37
2019-05-14T21:40:47.005Z,15.42
2019-05-14T21:43:18.563Z,15.43
2019-05-14T21:45:48.960Z,15.52
2019-05-14T21:48:19.885Z,15.54
2019-05-14T21:50:50.040Z,15.59
2019-05-14T21:53:19.944Z,15.59
2019-05-14T21:55:49.916Z,15.60
2019-05-14T21:58:19.940Z,15.59
2019-05-14T22:00:53.947Z,15.59
2019-05-14T22:03:24.195Z,15.61
2019-05-14T22:05:54.341Z,15.59
2019-05-14T22:08:24.177Z,15.52
2019-05-14T22:10:54.083Z,15.49
2019-05-14T22:13:23.933Z,15.45
2019-05-14T22:15:53.732Z,15.42
2019-05-14T22:18:23.668Z,15.38
2019-05-14T22:20:53.541Z,15.40
2019-05-14T22:23:23.454Z,15.34
2019-05-14T22:25:53.430Z,15.33
2019-05-14T22:28:23.226Z,15.39
2019-05-14T22:30:53.259Z,15.40
2019-05-14T22:33:23.154Z,15.48
2019-05-14T22:35:53.022Z,15.49
2019-05-14T22:38:22.946Z,15.40
2019-05-14T22:40:55.301Z,15.44
2019-05-14T22:43:25.398Z,15.52
2019-05-14T22:45:55.216Z,15.55
2019-05-14T22:48:26.326Z,15.61
2019-05-14T22:50:56.200Z,15.61
2019-05-14T22:53:27.869Z,15.54
2019-05-14T22:55:58.647Z,15.53
2019-05-14T22:58:28.963Z,15.58
2019-05-14T23:01:13.258Z,15.57
2019-05-14T23:03:30.688Z,15.50
2019-05-14T23:06:00.489Z,15.44
2019-05-14T23:08:30.245Z,15.44
2019-05-14T23:11:00.125Z,15.40
2019-05-14T23:13:29.973Z,15.30
2019-05-14T23:16:01.129Z,15.25
2019-05-14T23:18:30.992Z,15.19
2019-05-14T23:21:00.911Z,15.07
2019-05-14T23:23:30.861Z,15.03
2019-05-14T23:26:00.772Z,14.95
2019-05-14T23:28:41.768Z,14.93
2019-05-14T23:31:02.503Z,14.91
2019-05-14T23:33:32.776Z,14.96
2019-05-14T23:36:02.786Z,15.00
2019-05-14T23:38:32.621Z,14.90
2019-05-14T23:41:02.525Z,14.90
2019-05-14T23:43:33.042Z,14.92
2019-05-14T23:46:02.857Z,14.93
2019-05-14T23:48:32.775Z,14.91
2019-05-14T23:51:03.930Z,14.92
2019-05-14T23:53:33.748Z,14.96
2019-05-14T23:56:03.813Z,15.05
2019-05-14T23:58:33.927Z,15.05
